Time,TemperatureF,DewpointF,PressureIn,WindDirection,WindDirectionDegrees,WindSpeedMPH,WindSpeedGustMPH,Humidity,HourlyPrecipIn,Conditions,Clouds,dailyrainin,SoftwareType,DateUTC
2013-08-18 00:00:00,46.4,45.0,30.29,NW,317,0.0,0.0,95,0.00,,,0.00,Wunderground v.1.15,2013-08-18 04:00:00,
2013-08-18 00:05:00,46.3,45.2,30.28,NW,317,0.0,0.0,96,0.00,,,0.00,Wunderground v.1.15,2013-08-18 04:05:00,
2013-08-18 00:10:00,46.2,45.1,30.28,NW,317,0.0,1.0,96,0.00,,,0.00,Wunderground v.1.15,2013-08-18 04:10:00,
2013-08-18 00:15:00,46.3,45.2,30.29,NW,317,1.0,1.0,96,0.00,,,0.00,Wunderground v.1.15,2013-08-18 04:15:00,
2013-08-18 00:25:00,46.2,45.1,30.29,NW,317,0.0,1.0,96,0.00,,,0.00,Wunderground v.1.15,2013-08-18 04:25:00,
2013-08-18 00:30:00,46.0,44.9,30.29,NW,317,0.0,0.0,96,0.00,,,0.00,Wunderground v.1.15,2013-08-18 04:30:00,
2013-08-18 00:35:00,46.0,44.9,30.29,NW,317,0.0,0.0,96,0.00,,,0.00,Wunderground v.1.15,2013-08-18 04:35:00,
2013-08-18 00:40:00,46.0,44.9,30.28,NW,317,0.0,0.0,96,0.00,,,0.00,Wunderground v.1.15,2013-08-18 04:40:00,
2013-08-18 00:45:00,45.8,44.7,30.29,NW,317,0.0,0.0,96,0.00,,,0.00,Wunderground v.1.15,2013-08-18 04:45:00,
2013-08-18 00:50:00,45.8,44.7,30.28,NW,317,0.0,0.0,96,0.00,,,0.00,Wunderground v.1.15,2013-08-18 04:50:00,
2013-08-18 00:55:00,45.6,44.5,30.29,NW,317,0.0,0.0,96,0.00,,,0.00,Wunderground v.1.15,2013-08-18 04:55:00,
2013-08-18 01:00:00,45.5,44.4,30.29,NW,317,0.0,0.0,96,0.00,,,0.00,Wunderground v.1.15,2013-08-18 05:00:00,
2013-08-18 01:05:00,45.5,44.4,30.29,NW,317,0.0,0.0,96,0.00,,,0.00,Wunderground v.1.15,2013-08-18 05:05:00,
2013-08-18 01:15:00,45.4,44.3,30.29,NW,317,0.0,0.0,96,0.00,,,0.00,Wunderground v.1.15,2013-08-18 05:15:00,
2013-08-18 01:20:00,45.5,44.4,30.29,NW,317,0.0,0.0,96,0.00,,,0.00,Wunderground v.1.15,2013-08-18 05:20:00,
2013-08-18 01:25:00,45.6,44.5,30.29,NW,317,0.0,0.0,96,0.00,,,0.00,Wunderground v.1.15,2013-08-18 05:25:00,
2013-08-18 01:30:00,45.6,44.5,30.29,NW,317,0.0,0.0,96,0.00,,,0.00,Wunderground v.1.15,2013-08-18 05:30:00,
2013-08-18 01:45:00,45.2,44.1,30.29,NW,317,0.0,0.0,96,0.00,,,0.00,Wunderground v.1.15,2013-08-18 05:45:00,
2013-08-18 01:50:00,45.2,44.1,30.29,NW,317,0.0,0.0,96,0.00,,,0.00,Wunderground v.1.15,2013-08-18 05:50:00,
2013-08-18 01:55:00,45.0,43.9,30.29,NW,317,0.0,0.0,96,0.00,,,0.00,Wunderground v.1.15,2013-08-18 05:55:00,
2013-08-18 02:00:00,45.0,43.9,30.29,NW,317,0.0,0.0,96,0.00,,,0.00,Wunderground v.1.15,2013-08-18 06:00:00,
2013-08-18 02:05:00,45.1,44.3,30.29,NW,317,0.0,0.0,97,0.00,,,0.00,Wunderground v.1.15,2013-08-18 06:05:00,
2013-08-18 02:10:00,45.0,43.9,30.29,NW,317,0.0,0.0,96,0.00,,,0.00,Wunderground v.1.15,2013-08-18 06:10:00,
2013-08-18 02:20:00,44.8,43.7,30.29,NW,317,0.0,0.0,96,0.00,,,0.00,Wunderground v.1.15,2013-08-18 06:20:00,
2013-08-18 02:25:00,44.8,44.0,30.29,NW,317,0.0,0.0,97,0.00,,,0.00,Wunderground v.1.15,2013-08-18 06:25:00,
2013-08-18 02:30:00,44.7,43.6,30.29,NW,317,0.0,0.0,96,0.00,,,0.00,Wunderground v.1.15,2013-08-18 06:30:00,
2013-08-18 02:35:00,44.6,43.5,30.29,NW,317,0.0,0.0,96,0.00,,,0.00,Wunderground v.1.15,2013-08-18 06:35:00,
2013-08-18 02:40:00,44.5,43.7,30.29,NW,317,0.0,0.0,97,0.00,,,0.00,Wunderground v.1.15,2013-08-18 06:40:00,
2013-08-18 02:45:00,44.4,43.3,30.28,NW,317,0.0,0.0,96,0.00,,,0.00,Wunderground v.1.15,2013-08-18 06:45:00,
2013-08-18 02:50:00,44.3,43.2,30.28,NW,317,0.0,0.0,96,0.00,,,0.00,Wunderground v.1.15,2013-08-18 06:50:00,
2013-08-18 03:00:00,44.2,43.1,30.28,NW,317,0.0,0.0,96,0.00,,,0.00,Wunderground v.1.15,2013-08-18 07:00:00,
2013-08-18 03:05:00,44.1,43.3,30.28,NW,317,0.0,0.0,97,0.00,,,0.00,Wunderground v.1.15,2013-08-18 07:05:00,
2013-08-18 03:10:00,44.0,43.2,30.28,NW,317,0.0,0.0,97,0.00,,,0.00,Wunderground v.1.15,2013-08-18 07:10:00,
2013-08-18 03:15:00,44.0,43.2,30.28,NW,317,0.0,0.0,97,0.00,,,0.00,Wunderground v.1.15,2013-08-18 07:15:00,
2013-08-18 03:20:00,43.9,43.1,30.28,NW,317,0.0,0.0,97,0.00,,,0.00,Wunderground v.1.15,2013-08-18 07:20:00,
2013-08-18 03:25:00,43.8,42.7,30.28,NW,317,0.0,0.0,96,0.00,,,0.00,Wunderground v.1.15,2013-08-18 07:25:00,
2013-08-18 03:40:00,43.8,43.0,30.29,NW,317,0.0,0.0,97,0.00,,,0.00,Wunderground v.1.15,2013-08-18 07:40:00,
2013-08-18 03:45:00,43.8,43.0,30.29,NW,317,0.0,0.0,97,0.00,,,0.00,Wunderground v.1.15,2013-08-18 07:45:00,
2013-08-18 03:50:00,43.7,42.9,30.29,NW,317,0.0,0.0,97,0.00,,,0.00,Wunderground v.1.15,2013-08-18 07:50:00,
2013-08-18 03:55:00,43.6,42.8,30.29,NW,317,0.0,0.0,97,0.00,,,0.00,Wunderground v.1.15,2013-08-18 07:55:00,
2013-08-18 04:00:00,43.6,42.8,30.29,NW,317,0.0,0.0,97,0.00,,,0.00,Wunderground v.1.15,2013-08-18 08:00:00,
2013-08-18 04:05:00,43.7,42.9,30.29,NW,317,0.0,0.0,97,0.00,,,0.00,Wunderground v.1.15,2013-08-18 08:05:00,
2013-08-18 04:10:00,43.7,42.9,30.29,NW,317,0.0,0.0,97,0.00,,,0.00,Wunderground v.1.15,2013-08-18 08:10:00,
2013-08-18 04:15:00,43.6,42.8,30.29,NW,317,0.0,0.0,97,0.00,,,0.00,Wunderground v.1.15,2013-08-18 08:15:00,
2013-08-18 04:20:00,43.6,42.8,30.29,NW,317,0.0,0.0,97,0.00,,,0.00,Wunderground v.1.15,2013-08-18 08:20:00,
2013-08-18 04:25:00,43.6,42.8,30.29,NW,317,0.0,0.0,97,0.00,,,0.00,Wunderground v.1.15,2013-08-18 08:25:00,
2013-08-18 04:30:00,43.7,42.9,30.29,NW,317,0.0,0.0,97,0.00,,,0.00,Wunderground v.1.15,2013-08-18 08:30:00,
2013-08-18 04:35:00,43.6,42.8,30.29,NW,317,0.0,0.0,97,0.00,,,0.00,Wunderground v.1.15,2013-08-18 08:35:00,
2013-08-18 04:40:00,43.6,42.8,30.29,NW,317,0.0,1.0,97,0.00,,,0.00,Wunderground v.1.15,2013-08-18 08:40:00,
2013-08-18 04:45:00,43.7,42.9,30.29,NW,317,0.0,1.0,97,0.00,,,0.00,Wunderground v.1.15,2013-08-18 08:45:00,
2013-08-18 04:50:00,43.7,42.9,30.29,NW,317,0.0,0.0,97,0.00,,,0.00,Wunderground v.1.15,2013-08-18 08:50:00,
2013-08-18 05:00:00,43.6,42.8,30.29,NW,317,0.0,0.0,97,0.00,,,0.00,Wunderground v.1.15,2013-08-18 09:00:00,
2013-08-18 05:05:00,43.6,42.8,30.29,NW,317,0.0,0.0,97,0.00,,,0.00,Wunderground v.1.15,2013-08-18 09:05:00,
2013-08-18 05:10:00,43.6,42.8,30.29,NW,317,0.0,0.0,97,0.00,,,0.00,Wunderground v.1.15,2013-08-18 09:10:00,
2013-08-18 05:15:00,43.5,42.7,30.29,NW,317,0.0,0.0,97,0.00,,,0.00,Wunderground v.1.15,2013-08-18 09:15:00,
2013-08-18 05:20:00,43.4,42.6,30.29,NW,317,0.0,0.0,97,0.00,,,0.00,Wunderground v.1.15,2013-08-18 09:20:00,
2013-08-18 05:25:00,43.5,42.7,30.29,NW,317,0.0,0.0,97,0.00,,,0.00,Wunderground v.1.15,2013-08-18 09:25:00,
2013-08-18 05:30:00,43.6,42.8,30.29,NW,317,0.0,0.0,97,0.00,,,0.00,Wunderground v.1.15,2013-08-18 09:30:00,
2013-08-18 05:35:00,43.5,42.7,30.29,NW,317,0.0,0.0,97,0.00,,,0.00,Wunderground v.1.15,2013-08-18 09:35:00,
2013-08-18 05:40:00,43.5,42.7,30.29,NW,317,0.0,0.0,97,0.00,,,0.00,Wunderground v.1.15,2013-08-18 09:40:00,
2013-08-18 05:45:00,43.4,42.6,30.29,NW,317,0.0,0.0,97,0.00,,,0.00,Wunderground v.1.15,2013-08-18 09:45:00,
2013-08-18 05:50:00,43.4,42.6,30.30,NW,317,0.0,0.0,97,0.00,,,0.00,Wunderground v.1.15,2013-08-18 09:50:00,
2013-08-18 05:55:00,43.4,42.6,30.30,NW,317,0.0,0.0,97,0.00,,,0.00,Wunderground v.1.15,2013-08-18 09:55:00,
2013-08-18 06:00:00,43.3,42.5,30.30,NW,317,0.0,0.0,97,0.00,,,0.00,Wunderground v.1.15,2013-08-18 10:00:00,
2013-08-18 06:05:00,43.3,42.5,30.29,NW,317,0.0,0.0,97,0.00,,,0.00,Wunderground v.1.15,2013-08-18 10:05:00,
2013-08-18 06:10:00,43.4,42.6,30.30,NW,317,0.0,0.0,97,0.00,,,0.00,Wunderground v.1.15,2013-08-18 10:10:00,
2013-08-18 06:20:00,43.4,42.6,30.30,NW,317,0.0,0.0,97,0.00,,,0.00,Wunderground v.1.15,2013-08-18 10:20:00,
2013-08-18 06:25:00,43.4,42.6,30.30,NW,317,0.0,0.0,97,0.00,,,0.00,Wunderground v.1.15,2013-08-18 10:25:00,
2013-08-18 06:35:00,43.9,43.4,30.30,NW,317,0.0,0.0,98,0.00,,,0.00,Wunderground v.1.15,2013-08-18 10:35:00,
2013-08-18 06:45:00,44.2,43.7,30.30,NW,317,0.0,0.0,98,0.00,,,0.00,Wunderground v.1.15,2013-08-18 10:45:00,
2013-08-18 06:55:00,44.8,44.3,30.29,NW,317,0.0,1.0,98,0.00,,,0.00,Wunderground v.1.15,2013-08-18 10:55:00,
2013-08-18 07:00:00,45.4,44.9,30.30,NW,317,0.0,0.0,98,0.00,,,0.00,Wunderground v.1.15,2013-08-18 11:00:00,
2013-08-18 07:05:00,45.8,45.3,30.30,NW,317,0.0,0.0,98,0.00,,,0.00,Wunderground v.1.15,2013-08-18 11:05:00,
2013-08-18 07:10:00,46.1,45.6,30.30,NW,317,0.0,0.0,98,0.00,,,0.00,Wunderground v.1.15,2013-08-18 11:10:00,
2013-08-18 07:15:00,46.5,46.0,30.30,NW,317,0.0,0.0,98,0.00,,,0.00,Wunderground v.1.15,2013-08-18 11:15:00,
2013-08-18 07:20:00,46.8,46.3,30.30,NW,317,0.0,0.0,98,0.00,,,0.00,Wunderground v.1.15,2013-08-18 11:20:00,
2013-08-18 07:25:00,47.3,46.8,30.30,NW,317,0.0,0.0,98,0.00,,,0.00,Wunderground v.1.15,2013-08-18 11:25:00,
2013-08-18 07:30:00,47.8,47.3,30.30,NW,317,0.0,0.0,98,0.00,,,0.00,Wunderground v.1.15,2013-08-18 11:30:00,
2013-08-18 07:35:00,48.2,47.7,30.30,NW,317,0.0,0.0,98,0.00,,,0.00,Wunderground v.1.15,2013-08-18 11:35:00,
2013-08-18 07:40:00,48.6,48.1,30.29,NW,317,0.0,0.0,98,0.00,,,0.00,Wunderground v.1.15,2013-08-18 11:40:00,
2013-08-18 07:45:00,48.9,48.6,30.29,NW,317,0.0,0.0,99,0.00,,,0.00,Wunderground v.1.15,2013-08-18 11:45:00,
2013-08-18 07:50:00,49.4,48.9,30.29,NW,317,0.0,0.0,98,0.00,,,0.00,Wunderground v.1.15,2013-08-18 11:50:00,
2013-08-18 07:55:00,49.7,49.4,30.30,NW,317,0.0,0.0,99,0.00,,,0.00,Wunderground v.1.15,2013-08-18 11:55:00,
2013-08-18 08:00:00,50.1,49.8,30.30,NW,317,0.0,0.0,99,0.00,,,0.00,Wunderground v.1.15,2013-08-18 12:00:00,
2013-08-18 08:05:00,50.7,50.4,30.30,NW,317,0.0,1.0,99,0.00,,,0.00,Wunderground v.1.15,2013-08-18 12:05:00,
2013-08-18 08:10:00,51.2,50.9,30.30,NW,317,0.0,0.0,99,0.00,,,0.00,Wunderground v.1.15,2013-08-18 12:10:00,
2013-08-18 08:15:00,51.6,51.3,30.30,NW,317,0.0,0.0,99,0.00,,,0.00,Wunderground v.1.15,2013-08-18 12:15:00,
2013-08-18 08:20:00,52.2,51.9,30.30,NW,317,1.0,1.0,99,0.00,,,0.00,Wunderground v.1.15,2013-08-18 12:20:00,
2013-08-18 08:25:00,52.5,52.2,30.30,NW,317,0.0,1.0,99,0.00,,,0.00,Wunderground v.1.15,2013-08-18 12:25:00,
2013-08-18 08:30:00,52.7,52.4,30.30,NW,317,0.0,0.0,99,0.00,,,0.00,Wunderground v.1.15,2013-08-18 12:30:00,
2013-08-18 08:35:00,52.6,52.3,30.30,NW,317,0.0,0.0,99,0.00,,,0.00,Wunderground v.1.15,2013-08-18 12:35:00,
2013-08-18 08:40:00,53.0,52.7,30.29,NW,317,0.0,0.0,99,0.00,,,0.00,Wunderground v.1.15,2013-08-18 12:40:00,
2013-08-18 08:45:00,53.6,53.3,30.30,NW,317,0.0,0.0,99,0.00,,,0.00,Wunderground v.1.15,2013-08-18 12:45:00,
2013-08-18 08:50:00,53.7,53.4,30.30,NW,317,0.0,0.0,99,0.00,,,0.00,Wunderground v.1.15,2013-08-18 12:50:00,
2013-08-18 08:55:00,54.1,53.8,30.29,NW,317,0.0,0.0,99,0.00,,,0.00,Wunderground v.1.15,2013-08-18 12:55:00,
2013-08-18 09:05:00,55.0,53.9,30.30,NW,317,0.0,0.0,96,0.00,,,0.00,Wunderground v.1.15,2013-08-18 13:05:00,
2013-08-18 09:10:00,55.4,53.7,30.29,NW,317,0.0,0.0,94,0.00,,,0.00,Wunderground v.1.15,2013-08-18 13:10:00,
2013-08-18 09:15:00,56.2,54.5,30.29,NW,317,0.0,0.0,94,0.00,,,0.00,Wunderground v.1.15,2013-08-18 13:15:00,
2013-08-18 09:20:00,56.7,54.4,30.29,NW,317,0.0,0.0,92,0.00,,,0.00,Wunderground v.1.15,2013-08-18 13:20:00,
2013-08-18 09:25:00,57.1,54.2,30.29,NW,317,0.0,0.0,90,0.00,,,0.00,Wunderground v.1.15,2013-08-18 13:25:00,
2013-08-18 09:30:00,57.5,54.6,30.29,NW,317,0.0,0.0,90,0.00,,,0.00,Wunderground v.1.15,2013-08-18 13:30:00,
2013-08-18 09:35:00,58.0,54.8,30.29,NW,323,1.0,1.0,89,0.00,,,0.00,Wunderground v.1.15,2013-08-18 13:35:00,
2013-08-18 09:45:00,59.2,55.0,30.28,NNW,328,0.0,1.0,86,0.00,,,0.00,Wunderground v.1.15,2013-08-18 13:45:00,
2013-08-18 09:50:00,59.5,55.3,30.28,NNW,328,1.0,1.0,86,0.00,,,0.00,Wunderground v.1.15,2013-08-18 13:50:00,
2013-08-18 09:55:00,60.0,55.2,30.28,NNW,328,1.0,1.0,84,0.00,,,0.00,Wunderground v.1.15,2013-08-18 13:55:00,
2013-08-18 10:00:00,60.7,56.2,30.28,NW,317,0.0,1.0,85,0.00,,,0.00,Wunderground v.1.15,2013-08-18 14:00:00,
2013-08-18 10:05:00,61.0,55.5,30.28,NW,311,1.0,1.0,82,0.00,,,0.00,Wunderground v.1.15,2013-08-18 14:05:00,
2013-08-18 10:10:00,61.4,56.2,30.28,ESE,111,1.0,2.0,83,0.00,,,0.00,Wunderground v.1.15,2013-08-18 14:10:00,
2013-08-18 10:15:00,61.7,56.1,30.28,ENE,71,1.0,2.0,82,0.00,,,0.00,Wunderground v.1.15,2013-08-18 14:15:00,
2013-08-18 10:20:00,62.1,56.5,30.28,ENE,71,1.0,1.0,82,0.00,,,0.00,Wunderground v.1.15,2013-08-18 14:20:00,
2013-08-18 10:25:00,62.5,56.9,30.28,ENE,71,1.0,1.0,82,0.00,,,0.00,Wunderground v.1.15,2013-08-18 14:25:00,
2013-08-18 10:30:00,62.7,57.5,30.28,ENE,70,1.0,1.0,83,0.00,,,0.00,Wunderground v.1.15,2013-08-18 14:30:00,
2013-08-18 10:40:00,63.4,57.8,30.28,ENE,71,1.0,3.0,82,0.00,,,0.00,Wunderground v.1.15,2013-08-18 14:40:00,
2013-08-18 10:45:00,64.0,57.7,30.28,ENE,71,1.0,3.0,80,0.00,,,0.00,Wunderground v.1.15,2013-08-18 14:45:00,
2013-08-18 10:55:00,64.9,58.9,30.28,ENE,71,1.0,1.0,81,0.00,,,0.00,Wunderground v.1.15,2013-08-18 14:55:00,
2013-08-18 11:00:00,65.5,57.7,30.28,ENE,74,1.0,1.0,76,0.00,,,0.00,Wunderground v.1.15,2013-08-18 15:00:00,
2013-08-18 11:05:00,65.7,57.9,30.27,ENE,74,2.0,2.0,76,0.00,,,0.00,Wunderground v.1.15,2013-08-18 15:05:00,
2013-08-18 11:10:00,66.0,58.9,30.27,ENE,74,1.0,1.0,78,0.00,,,0.00,Wunderground v.1.15,2013-08-18 15:10:00,
2013-08-18 11:15:00,66.3,59.2,30.27,ENE,74,1.0,3.0,78,0.00,,,0.00,Wunderground v.1.15,2013-08-18 15:15:00,
2013-08-18 11:20:00,66.8,59.7,30.27,ENE,74,0.0,1.0,78,0.00,,,0.00,Wunderground v.1.15,2013-08-18 15:20:00,
2013-08-18 11:25:00,67.4,60.7,30.27,ENE,74,1.0,1.0,79,0.00,,,0.00,Wunderground v.1.15,2013-08-18 15:25:00,
2013-08-18 11:30:00,67.7,59.1,30.27,East,92,1.0,1.0,74,0.00,,,0.00,Wunderground v.1.15,2013-08-18 15:30:00,
2013-08-18 11:35:00,68.2,60.3,30.26,ENE,67,1.0,1.0,76,0.00,,,0.00,Wunderground v.1.15,2013-08-18 15:35:00,
2013-08-18 11:40:00,68.6,60.4,30.27,East,96,2.0,2.0,75,0.00,,,0.00,Wunderground v.1.15,2013-08-18 15:40:00,
2013-08-18 11:45:00,69.1,61.6,30.26,ENE,67,2.0,2.0,77,0.00,,,0.00,Wunderground v.1.15,2013-08-18 15:45:00,
2013-08-18 11:50:00,69.5,60.5,30.26,ENE,76,1.0,1.0,73,0.00,,,0.00,Wunderground v.1.15,2013-08-18 15:50:00,
2013-08-18 11:55:00,69.7,61.4,30.26,NE,52,1.0,1.0,75,0.00,,,0.00,Wunderground v.1.15,2013-08-18 15:55:00,
2013-08-18 12:05:00,70.7,60.8,30.25,ENE,61,2.0,3.0,71,0.00,,,0.00,Wunderground v.1.15,2013-08-18 16:05:00,
2013-08-18 12:15:00,71.6,62.1,30.24,ENE,63,2.0,2.0,72,0.00,,,0.00,Wunderground v.1.15,2013-08-18 16:15:00,
2013-08-18 12:20:00,71.9,60.8,30.24,ENE,59,3.0,3.0,68,0.00,,,0.00,Wunderground v.1.15,2013-08-18 16:20:00,
2013-08-18 12:25:00,71.8,61.5,30.24,NE,47,3.0,3.0,70,0.00,,,0.00,Wunderground v.1.15,2013-08-18 16:25:00,
2013-08-18 12:30:00,71.9,61.2,30.24,ESE,109,2.0,3.0,69,0.00,,,0.00,Wunderground v.1.15,2013-08-18 16:30:00,
2013-08-18 12:35:00,71.7,61.0,30.23,North,5,2.0,3.0,69,0.00,,,0.00,Wunderground v.1.15,2013-08-18 16:35:00,
2013-08-18 12:40:00,71.8,61.1,30.23,NNE,18,2.0,2.0,69,0.00,,,0.00,Wunderground v.1.15,2013-08-18 16:40:00,
2013-08-18 12:45:00,72.0,61.3,30.23,ESE,105,2.0,2.0,69,0.00,,,0.00,Wunderground v.1.15,2013-08-18 16:45:00,
2013-08-18 12:50:00,71.9,61.2,30.23,NE,47,1.0,3.0,69,0.00,,,0.00,Wunderground v.1.15,2013-08-18 16:50:00,
2013-08-18 12:55:00,71.7,59.7,30.23,SE,133,2.0,4.0,66,0.00,,,0.00,Wunderground v.1.15,2013-08-18 16:55:00,
2013-08-18 13:05:00,71.9,60.8,30.22,East,89,1.0,2.0,68,0.00,,,0.00,Wunderground v.1.15,2013-08-18 17:05:00,
2013-08-18 13:10:00,72.0,61.3,30.22,East,85,1.0,1.0,69,0.00,,,0.00,Wunderground v.1.15,2013-08-18 17:10:00,
2013-08-18 13:15:00,72.2,59.8,30.21,SE,141,1.0,4.0,65,0.00,,,0.00,Wunderground v.1.15,2013-08-18 17:15:00,
2013-08-18 13:25:00,72.4,60.8,30.21,NNE,18,1.0,2.0,67,0.00,,,0.00,Wunderground v.1.15,2013-08-18 17:25:00,
2013-08-18 13:30:00,72.5,60.5,30.21,SSE,147,2.0,2.0,66,0.00,,,0.00,Wunderground v.1.15,2013-08-18 17:30:00,
2013-08-18 13:35:00,72.7,61.1,30.20,NNE,26,2.0,2.0,67,0.00,,,0.00,Wunderground v.1.15,2013-08-18 17:35:00,
2013-08-18 13:40:00,73.3,60.8,30.20,ENE,60,2.0,2.0,65,0.00,,,0.00,Wunderground v.1.15,2013-08-18 17:40:00,
2013-08-18 13:45:00,73.7,62.5,30.20,ENE,59,1.0,2.0,68,0.00,,,0.00,Wunderground v.1.15,2013-08-18 17:45:00,
2013-08-18 13:50:00,73.9,60.1,30.20,ENE,73,1.0,1.0,62,0.00,,,0.00,Wunderground v.1.15,2013-08-18 17:50:00,
2013-08-18 13:55:00,74.1,61.6,30.19,ENE,65,2.0,2.0,65,0.00,,,0.00,Wunderground v.1.15,2013-08-18 17:55:00,
2013-08-18 14:05:00,73.9,60.1,30.19,SE,140,3.0,4.0,62,0.00,,,0.00,Wunderground v.1.15,2013-08-18 18:05:00,
2013-08-18 14:10:00,73.1,60.2,30.19,SE,140,2.0,2.0,64,0.00,,,0.00,Wunderground v.1.15,2013-08-18 18:10:00,
2013-08-18 14:15:00,73.3,60.4,30.19,ENE,77,1.0,2.0,64,0.00,,,0.00,Wunderground v.1.15,2013-08-18 18:15:00,
2013-08-18 14:25:00,74.0,60.6,30.19,ENE,59,1.0,2.0,63,0.00,,,0.00,Wunderground v.1.15,2013-08-18 18:25:00,
2013-08-18 14:30:00,74.4,62.3,30.18,NE,51,2.0,2.0,66,0.00,,,0.00,Wunderground v.1.15,2013-08-18 18:30:00,
2013-08-18 14:35:00,75.1,61.2,30.18,ESE,113,2.0,2.0,62,0.00,,,0.00,Wunderground v.1.15,2013-08-18 18:35:00,
2013-08-18 14:40:00,75.4,61.5,30.18,NE,52,2.0,3.0,62,0.00,,,0.00,Wunderground v.1.15,2013-08-18 18:40:00,
2013-08-18 14:45:00,74.7,58.9,30.18,SSE,158,3.0,4.0,58,0.00,,,0.00,Wunderground v.1.15,2013-08-18 18:45:00,
2013-08-18 14:50:00,73.9,58.7,30.17,SE,125,3.0,4.0,59,0.00,,,0.00,Wunderground v.1.15,2013-08-18 18:50:00,
2013-08-18 14:55:00,73.9,59.1,30.17,SSE,153,2.0,2.0,60,0.00,,,0.00,Wunderground v.1.15,2013-08-18 18:55:00,
2013-08-18 15:00:00,73.8,60.4,30.17,ESE,103,1.0,1.0,63,0.00,,,0.00,Wunderground v.1.15,2013-08-18 19:00:00,
2013-08-18 15:05:00,74.2,59.4,30.17,NE,52,1.0,1.0,60,0.00,,,0.00,Wunderground v.1.15,2013-08-18 19:05:00,
2013-08-18 15:15:00,74.4,57.7,30.16,East,92,1.0,2.0,56,0.00,,,0.00,Wunderground v.1.15,2013-08-18 19:15:00,
2013-08-18 15:20:00,74.7,60.4,30.16,North,355,1.0,1.0,61,0.00,,,0.00,Wunderground v.1.15,2013-08-18 19:20:00,
2013-08-18 15:30:00,74.8,58.5,30.16,SSW,213,3.0,3.0,57,0.00,,,0.00,Wunderground v.1.15,2013-08-18 19:30:00,
2013-08-18 15:35:00,74.8,56.5,30.15,SSW,193,3.0,3.0,53,0.00,,,0.00,Wunderground v.1.15,2013-08-18 19:35:00,
2013-08-18 15:40:00,75.0,54.5,30.16,SW,223,2.0,2.0,49,0.00,,,0.00,Wunderground v.1.15,2013-08-18 19:40:00,
2013-08-18 15:45:00,75.2,54.7,30.15,South,187,2.0,4.0,49,0.00,,,0.00,Wunderground v.1.15,2013-08-18 19:45:00,
2013-08-18 15:50:00,74.9,53.9,30.15,South,190,3.0,3.0,48,0.00,,,0.00,Wunderground v.1.15,2013-08-18 19:50:00,
2013-08-18 15:55:00,74.9,53.9,30.15,SSW,210,3.0,3.0,48,0.00,,,0.00,Wunderground v.1.15,2013-08-18 19:55:00,
2013-08-18 16:00:00,75.2,56.4,30.15,WNW,298,1.0,1.0,52,0.00,,,0.00,Wunderground v.1.15,2013-08-18 20:00:00,
2013-08-18 16:05:00,75.1,52.9,30.15,SSW,205,1.0,1.0,46,0.00,,,0.00,Wunderground v.1.15,2013-08-18 20:05:00,
2013-08-18 16:10:00,75.2,52.4,30.14,SSW,205,1.0,1.0,45,0.00,,,0.00,Wunderground v.1.15,2013-08-18 20:10:00,
2013-08-18 16:15:00,75.1,52.3,30.15,SSW,205,0.0,1.0,45,0.00,,,0.00,Wunderground v.1.15,2013-08-18 20:15:00,
2013-08-18 16:20:00,74.9,55.0,30.15,South,185,1.0,3.0,50,0.00,,,0.00,Wunderground v.1.15,2013-08-18 20:20:00,
2013-08-18 16:25:00,74.4,55.6,30.14,SSW,199,2.0,3.0,52,0.00,,,0.00,Wunderground v.1.15,2013-08-18 20:25:00,
2013-08-18 16:30:00,74.4,55.1,30.14,NW,306,2.0,2.0,51,0.00,,,0.00,Wunderground v.1.15,2013-08-18 20:30:00,
2013-08-18 16:35:00,74.6,57.4,30.14,NW,306,1.0,2.0,55,0.00,,,0.00,Wunderground v.1.15,2013-08-18 20:35:00,
2013-08-18 16:40:00,74.8,58.5,30.14,NW,306,0.0,0.0,57,0.00,,,0.00,Wunderground v.1.15,2013-08-18 20:40:00,
2013-08-18 16:45:00,74.8,58.5,30.14,SW,227,1.0,3.0,57,0.00,,,0.00,Wunderground v.1.15,2013-08-18 20:45:00,
2013-08-18 16:50:00,74.6,58.8,30.14,SW,226,1.0,4.0,58,0.00,,,0.00,Wunderground v.1.15,2013-08-18 20:50:00,
2013-08-18 16:55:00,74.3,58.6,30.14,SSW,205,2.0,4.0,58,0.00,,,0.00,Wunderground v.1.15,2013-08-18 20:55:00,
2013-08-18 17:00:00,74.0,57.8,30.13,WSW,244,2.0,2.0,57,0.00,,,0.00,Wunderground v.1.15,2013-08-18 21:00:00,
2013-08-18 17:10:00,73.7,58.9,30.13,WSW,244,2.0,2.0,60,0.00,,,0.00,Wunderground v.1.15,2013-08-18 21:10:00,
2013-08-18 17:15:00,73.6,58.4,30.13,SW,217,1.0,2.0,59,0.00,,,0.00,Wunderground v.1.15,2013-08-18 21:15:00,
2013-08-18 17:20:00,73.3,58.6,30.13,SW,217,2.0,5.0,60,0.00,,,0.00,Wunderground v.1.15,2013-08-18 21:20:00,
2013-08-18 17:25:00,73.0,58.3,30.12,South,172,3.0,5.0,60,0.00,,,0.00,Wunderground v.1.15,2013-08-18 21:25:00,
2013-08-18 17:30:00,72.7,58.0,30.12,South,186,2.0,2.0,60,0.00,,,0.00,Wunderground v.1.15,2013-08-18 21:30:00,
2013-08-18 17:35:00,72.6,58.4,30.12,SSW,200,2.0,3.0,61,0.00,,,0.00,Wunderground v.1.15,2013-08-18 21:35:00,
2013-08-18 17:40:00,72.3,57.6,30.12,SW,215,3.0,3.0,60,0.00,,,0.00,Wunderground v.1.15,2013-08-18 21:40:00,
2013-08-18 17:45:00,72.1,57.0,30.12,SW,218,3.0,3.0,59,0.00,,,0.00,Wunderground v.1.15,2013-08-18 21:45:00,
2013-08-18 17:55:00,71.8,59.0,30.11,SW,221,1.0,2.0,64,0.00,,,0.00,Wunderground v.1.15,2013-08-18 21:55:00,
2013-08-18 18:00:00,71.7,61.8,30.11,SW,221,1.0,1.0,71,0.00,,,0.00,Wunderground v.1.15,2013-08-18 22:00:00,
2013-08-18 18:05:00,71.5,63.2,30.11,SW,221,0.0,1.0,75,0.00,,,0.00,Wunderground v.1.15,2013-08-18 22:05:00,
2013-08-18 18:10:00,71.2,62.1,30.11,SW,221,0.0,0.0,73,0.00,,,0.00,Wunderground v.1.15,2013-08-18 22:10:00,
2013-08-18 18:15:00,71.3,62.6,30.11,SW,221,0.0,0.0,74,0.00,,,0.00,Wunderground v.1.15,2013-08-18 22:15:00,
2013-08-18 18:20:00,71.6,60.1,30.11,SW,221,0.0,2.0,67,0.00,,,0.00,Wunderground v.1.15,2013-08-18 22:20:00,
2013-08-18 18:25:00,72.1,58.4,30.11,SW,221,1.0,2.0,62,0.00,,,0.00,Wunderground v.1.15,2013-08-18 22:25:00,
2013-08-18 18:30:00,72.5,59.2,30.10,SW,221,1.0,1.0,63,0.00,,,0.00,Wunderground v.1.15,2013-08-18 22:30:00,
2013-08-18 18:35:00,72.6,60.2,30.10,SW,221,1.0,1.0,65,0.00,,,0.00,Wunderground v.1.15,2013-08-18 22:35:00,
2013-08-18 18:40:00,72.2,61.5,30.10,SW,221,1.0,2.0,69,0.00,,,0.00,Wunderground v.1.15,2013-08-18 22:40:00,
2013-08-18 18:45:00,71.4,61.9,30.10,SW,221,1.0,2.0,72,0.00,,,0.00,Wunderground v.1.15,2013-08-18 22:45:00,
2013-08-18 18:50:00,70.6,62.3,30.10,SW,221,0.0,0.0,75,0.00,,,0.00,Wunderground v.1.15,2013-08-18 22:50:00,
2013-08-18 18:55:00,69.2,62.0,30.10,SW,221,0.0,1.0,78,0.00,,,0.00,Wunderground v.1.15,2013-08-18 22:55:00,
2013-08-18 19:00:00,68.3,61.5,30.10,SW,221,0.0,0.0,79,0.00,,,0.00,Wunderground v.1.15,2013-08-18 23:00:00,
2013-08-18 19:05:00,67.9,61.9,30.09,SW,221,0.0,0.0,81,0.00,,,0.00,Wunderground v.1.15,2013-08-18 23:05:00,
2013-08-18 19:10:00,67.2,60.8,30.09,SW,221,0.0,0.0,80,0.00,,,0.00,Wunderground v.1.15,2013-08-18 23:10:00,
2013-08-18 19:15:00,66.3,60.3,30.09,SW,221,0.0,0.0,81,0.00,,,0.00,Wunderground v.1.15,2013-08-18 23:15:00,
2013-08-18 19:20:00,65.3,60.3,30.09,SW,221,0.0,0.0,84,0.00,,,0.00,Wunderground v.1.15,2013-08-18 23:20:00,
2013-08-18 19:25:00,64.4,59.8,30.09,SW,221,0.0,0.0,85,0.00,,,0.00,Wunderground v.1.15,2013-08-18 23:25:00,
2013-08-18 19:30:00,63.6,59.3,30.10,SW,221,0.0,0.0,86,0.00,,,0.00,Wunderground v.1.15,2013-08-18 23:30:00,
2013-08-18 19:35:00,62.9,59.0,30.10,SW,221,0.0,0.0,87,0.00,,,0.00,Wunderground v.1.15,2013-08-18 23:35:00,
2013-08-18 19:40:00,62.3,58.4,30.10,SW,221,0.0,0.0,87,0.00,,,0.00,Wunderground v.1.15,2013-08-18 23:40:00,
2013-08-18 19:45:00,61.9,58.3,30.10,SW,221,0.0,0.0,88,0.00,,,0.00,Wunderground v.1.15,2013-08-18 23:45:00,
2013-08-18 19:55:00,61.0,57.7,30.10,SW,221,0.0,0.0,89,0.00,,,0.00,Wunderground v.1.15,2013-08-18 23:55:00,
2013-08-18 20:00:00,60.6,57.3,30.10,SW,221,0.0,0.0,89,0.00,,,0.00,Wunderground v.1.15,2013-08-19 00:00:00,
2013-08-18 20:05:00,60.2,56.9,30.10,SW,221,0.0,0.0,89,0.00,,,0.00,Wunderground v.1.15,2013-08-19 00:05:00,
2013-08-18 20:10:00,59.9,56.6,30.10,SW,221,0.0,0.0,89,0.00,,,0.00,Wunderground v.1.15,2013-08-19 00:10:00,
2013-08-18 20:15:00,59.5,56.6,30.09,SW,221,0.0,0.0,90,0.00,,,0.00,Wunderground v.1.15,2013-08-19 00:15:00,
2013-08-18 20:24:00,58.9,56.0,30.09,SW,221,0.0,0.0,90,0.00,,,0.00,Wunderground v.1.15,2013-08-19 00:24:00,
2013-08-18 20:30:00,58.4,55.5,30.09,SW,221,1.0,1.0,90,0.00,,,0.00,Wunderground v.1.15,2013-08-19 00:30:00,
2013-08-18 20:35:00,58.1,55.5,30.09,SW,221,0.0,1.0,91,0.00,,,0.00,Wunderground v.1.15,2013-08-19 00:35:00,
2013-08-18 20:40:00,57.8,55.2,30.10,SW,221,0.0,0.0,91,0.00,,,0.00,Wunderground v.1.15,2013-08-19 00:40:00,
2013-08-18 20:45:00,57.5,54.9,30.09,SW,221,0.0,0.0,91,0.00,,,0.00,Wunderground v.1.15,2013-08-19 00:45:00,
2013-08-18 20:50:00,57.2,54.6,30.09,SW,221,0.0,0.0,91,0.00,,,0.00,Wunderground v.1.15,2013-08-19 00:50:00,
2013-08-18 20:55:00,56.9,54.3,30.09,SW,221,0.0,0.0,91,0.00,,,0.00,Wunderground v.1.15,2013-08-19 00:55:00,
2013-08-18 21:00:00,56.6,54.0,30.09,SW,221,0.0,0.0,91,0.00,,,0.00,Wunderground v.1.15,2013-08-19 01:00:00,
2013-08-18 21:05:00,56.2,53.6,30.09,SW,221,0.0,0.0,91,0.00,,,0.00,Wunderground v.1.15,2013-08-19 01:05:00,
2013-08-18 21:15:00,55.7,53.1,30.09,SW,221,0.0,0.0,91,0.00,,,0.00,Wunderground v.1.15,2013-08-19 01:15:00,
2013-08-18 21:20:00,55.4,53.1,30.09,SW,221,0.0,0.0,92,0.00,,,0.00,Wunderground v.1.15,2013-08-19 01:20:00,
2013-08-18 21:25:00,55.0,52.7,30.09,SW,221,0.0,0.0,92,0.00,,,0.00,Wunderground v.1.15,2013-08-19 01:25:00,
2013-08-18 21:30:00,54.9,52.9,30.09,SW,221,0.0,0.0,93,0.00,,,0.00,Wunderground v.1.15,2013-08-19 01:30:00,
2013-08-18 21:35:00,54.6,52.6,30.09,SW,221,0.0,0.0,93,0.00,,,0.00,Wunderground v.1.15,2013-08-19 01:35:00,
2013-08-18 21:40:00,54.4,52.4,30.09,SW,221,0.0,0.0,93,0.00,,,0.00,Wunderground v.1.15,2013-08-19 01:40:00,
2013-08-18 21:45:00,54.1,52.1,30.09,SW,221,0.0,0.0,93,0.00,,,0.00,Wunderground v.1.15,2013-08-19 01:45:00,
2013-08-18 21:50:00,53.9,52.2,30.09,SW,221,0.0,0.0,94,0.00,,,0.00,Wunderground v.1.15,2013-08-19 01:50:00,
2013-08-18 21:55:00,53.7,52.0,30.08,SW,221,0.0,0.0,94,0.00,,,0.00,Wunderground v.1.15,2013-08-19 01:55:00,
2013-08-18 22:00:00,53.4,51.7,30.09,SW,221,0.0,0.0,94,0.00,,,0.00,Wunderground v.1.15,2013-08-19 02:00:00,
2013-08-18 22:05:00,53.2,51.5,30.09,SW,221,0.0,0.0,94,0.00,,,0.00,Wunderground v.1.15,2013-08-19 02:05:00,
2013-08-18 22:10:00,53.0,51.3,30.09,SW,221,0.0,0.0,94,0.00,,,0.00,Wunderground v.1.15,2013-08-19 02:10:00,
2013-08-18 22:15:00,52.8,51.1,30.09,SW,221,0.0,0.0,94,0.00,,,0.00,Wunderground v.1.15,2013-08-19 02:15:00,
2013-08-18 22:20:00,52.7,51.0,30.08,SW,221,0.0,0.0,94,0.00,,,0.00,Wunderground v.1.15,2013-08-19 02:20:00,
2013-08-18 22:25:00,52.5,51.1,30.08,SW,221,0.0,0.0,95,0.00,,,0.00,Wunderground v.1.15,2013-08-19 02:25:00,
2013-08-18 22:30:00,52.4,51.0,30.08,SW,221,0.0,0.0,95,0.00,,,0.00,Wunderground v.1.15,2013-08-19 02:30:00,
2013-08-18 22:35:00,52.5,51.1,30.08,SW,221,0.0,0.0,95,0.00,,,0.00,Wunderground v.1.15,2013-08-19 02:35:00,
2013-08-18 22:40:00,52.2,50.8,30.08,SW,221,0.0,0.0,95,0.00,,,0.00,Wunderground v.1.15,2013-08-19 02:40:00,
2013-08-18 22:45:00,52.0,50.6,30.09,SW,221,0.0,0.0,95,0.00,,,0.00,Wunderground v.1.15,2013-08-19 02:45:00,
2013-08-18 22:50:00,51.9,50.5,30.08,SW,221,0.0,0.0,95,0.00,,,0.00,Wunderground v.1.15,2013-08-19 02:50:00,
2013-08-18 22:55:00,51.7,50.3,30.09,SW,221,0.0,0.0,95,0.00,,,0.00,Wunderground v.1.15,2013-08-19 02:55:00,
2013-08-18 23:00:00,51.8,50.4,30.09,SW,221,0.0,0.0,95,0.00,,,0.00,Wunderground v.1.15,2013-08-19 03:00:00,
2013-08-18 23:10:00,51.7,50.6,30.09,SW,221,0.0,1.0,96,0.00,,,0.00,Wunderground v.1.15,2013-08-19 03:10:00,
2013-08-18 23:15:00,51.7,50.6,30.08,SW,221,0.0,1.0,96,0.00,,,0.00,Wunderground v.1.15,2013-08-19 03:15:00,
2013-08-18 23:20:00,51.5,50.4,30.09,SW,221,0.0,0.0,96,0.00,,,0.00,Wunderground v.1.15,2013-08-19 03:20:00,
2013-08-18 23:25:00,51.4,50.3,30.09,SW,221,0.0,1.0,96,0.00,,,0.00,Wunderground v.1.15,2013-08-19 03:25:00,
2013-08-18 23:30:00,51.4,50.3,30.08,SW,221,0.0,0.0,96,0.00,,,0.00,Wunderground v.1.15,2013-08-19 03:30:00,
2013-08-18 23:35:00,51.3,50.2,30.09,SW,221,0.0,0.0,96,0.00,,,0.00,Wunderground v.1.15,2013-08-19 03:35:00,
2013-08-18 23:40:00,51.2,50.1,30.09,SW,221,0.0,0.0,96,0.00,,,0.00,Wunderground v.1.15,2013-08-19 03:40:00,
2013-08-18 23:45:00,51.2,50.1,30.09,SW,221,0.0,0.0,96,0.00,,,0.00,Wunderground v.1.15,2013-08-19 03:45:00,
2013-08-18 23:50:00,51.2,50.1,30.09,SW,221,0.0,0.0,96,0.00,,,0.00,Wunderground v.1.15,2013-08-19 03:50:00,
2013-08-18 23:55:00,51.0,49.9,30.09,SW,221,0.0,0.0,96,0.00,,,0.00,Wunderground v.1.15,2013-08-19 03:55:00,